AAL1014 KTUS-KDFW
Flight info
| Callsign | AAL1014 |
|---|---|
| Flight time | N/A |
| Altitude | 37000 |
| Route | WLDKT4 SSO J50 ALIBY EWM J4 INK GEEKY BOOVE7 |
| Aircraft | A319/M-SDE3FGHIRWY/LB1 |
Departure
| Time | 2026-05-08 22:28 |
|---|---|
| Airport | Tucson International Airport (KTUS) |
Arrival
| Time | N/A |
|---|---|
| Airport | Dallas Fort Worth International Airport (KDFW) |
| Time | Latitude | Longitude | Altitude | Speed | Heading |
|---|---|---|---|---|---|
| 2026-05-08 21:59 | 32.12163 | -110.93988 | 2606 ft | 0 kts | 160° |
| 2026-05-08 22:17 | 32.12181 | -110.93996 | 2605 ft | 4 kts | 160° |
| 2026-05-08 22:17 | 32.12201 | -110.94005 | 2604 ft | 4 kts | 167° |
| 2026-05-08 22:17 | 32.12220 | -110.94003 | 2603 ft | 4 kts | 248° |
| 2026-05-08 22:18 | 32.12222 | -110.93977 | 2604 ft | 2 kts | 269° |
| 2026-05-08 22:18 | 32.12222 | -110.93975 | 2604 ft | 1 kts | 269° |
| 2026-05-08 22:21 | 32.12222 | -110.93976 | 2604 ft | 0 kts | 269° |
| 2026-05-08 22:23 | 32.12222 | -110.93984 | 2604 ft | 5 kts | 269° |
| 2026-05-08 22:23 | 32.12190 | -110.94069 | 2604 ft | 16 kts | 212° |
| 2026-05-08 22:23 | 32.12082 | -110.94090 | 2605 ft | 16 kts | 173° |
| 2026-05-08 22:24 | 32.11971 | -110.94104 | 2605 ft | 17 kts | 172° |
| 2026-05-08 22:24 | 32.11874 | -110.94004 | 2608 ft | 21 kts | 134° |
| 2026-05-08 22:24 | 32.11778 | -110.93887 | 2613 ft | 20 kts | 136° |
| 2026-05-08 22:24 | 32.11674 | -110.93767 | 2617 ft | 24 kts | 135° |
| 2026-05-08 22:25 | 32.11546 | -110.93617 | 2622 ft | 25 kts | 135° |
| 2026-05-08 22:25 | 32.11422 | -110.93472 | 2627 ft | 27 kts | 135° |
| 2026-05-08 22:25 | 32.11260 | -110.93281 | 2632 ft | 36 kts | 135° |
| 2026-05-08 22:25 | 32.11085 | -110.93078 | 2636 ft | 34 kts | 135° |
| 2026-05-08 22:26 | 32.10923 | -110.92891 | 2640 ft | 32 kts | 135° |
| 2026-05-08 22:26 | 32.10769 | -110.92709 | 2645 ft | 31 kts | 134° |
| 2026-05-08 22:26 | 32.10624 | -110.92533 | 2648 ft | 29 kts | 134° |
| 2026-05-08 22:26 | 32.10484 | -110.92364 | 2651 ft | 28 kts | 134° |
| 2026-05-08 22:27 | 32.10360 | -110.92226 | 2656 ft | 19 kts | 139° |
| 2026-05-08 22:27 | 32.10260 | -110.92222 | 2652 ft | 18 kts | 227° |
| 2026-05-08 22:27 | 32.10235 | -110.92328 | 2654 ft | 14 kts | 314° |
| 2026-05-08 22:27 | 32.10378 | -110.92494 | 2648 ft | 58 kts | 315° |
| 2026-05-08 22:28 | 32.10827 | -110.93017 | 2637 ft | 120 kts | 315° |
| 2026-05-08 22:28 | 32.11545 | -110.93861 | 2617 ft | 170 kts | 315° |
| 2026-05-08 22:28 | 32.12402 | -110.94901 | 3083 ft | 178 kts | 318° |
| 2026-05-08 22:28 | 32.13268 | -110.95943 | 3777 ft | 177 kts | 316° |
| 2026-05-08 22:29 | 32.14143 | -110.96965 | 4457 ft | 178 kts | 317° |
| 2026-05-08 22:29 | 32.15063 | -110.98036 | 4775 ft | 196 kts | 316° |
| 2026-05-08 22:29 | 32.16139 | -110.99171 | 4987 ft | 220 kts | 328° |
| 2026-05-08 22:29 | 32.17673 | -110.99696 | 5257 ft | 245 kts | 359° |
| 2026-05-08 22:30 | 32.19395 | -110.99156 | 5669 ft | 270 kts | 28° |
| 2026-05-08 22:30 | 32.20809 | -110.97628 | 6376 ft | 284 kts | 52° |
| 2026-05-08 22:30 | 32.21734 | -110.95545 | 7182 ft | 293 kts | 73° |
| 2026-05-08 22:30 | 32.21948 | -110.93130 | 8000 ft | 299 kts | 88° |
| 2026-05-08 22:31 | 32.22005 | -110.90662 | 8807 ft | 302 kts | 87° |
| 2026-05-08 22:31 | 32.22088 | -110.88171 | 9607 ft | 306 kts | 86° |
| 2026-05-08 22:31 | 32.22189 | -110.85649 | 10324 ft | 313 kts | 85° |
| 2026-05-08 22:31 | 32.22303 | -110.82984 | 10583 ft | 337 kts | 85° |
| 2026-05-08 22:32 | 32.22418 | -110.80165 | 11121 ft | 348 kts | 86° |
| 2026-05-08 22:32 | 32.22525 | -110.77295 | 11886 ft | 351 kts | 86° |
| 2026-05-08 22:32 | 32.22627 | -110.74407 | 12704 ft | 354 kts | 86° |
| 2026-05-08 22:32 | 32.22718 | -110.71739 | 13450 ft | 356 kts | 86° |
| 2026-05-08 22:33 | 32.22819 | -110.68756 | 14271 ft | 359 kts | 85° |
| 2026-05-08 22:33 | 32.22916 | -110.65806 | 15052 ft | 360 kts | 85° |
| 2026-05-08 22:33 | 32.23015 | -110.62839 | 15784 ft | 363 kts | 85° |
| 2026-05-08 22:33 | 32.23116 | -110.59847 | 16529 ft | 366 kts | 85° |
| 2026-05-08 22:34 | 32.23221 | -110.56835 | 17247 ft | 368 kts | 84° |
| 2026-05-08 22:34 | 32.23324 | -110.53804 | 17967 ft | 370 kts | 84° |
| 2026-05-08 22:34 | 32.23425 | -110.50751 | 18649 ft | 374 kts | 84° |
| 2026-05-08 22:34 | 32.23526 | -110.47668 | 19318 ft | 377 kts | 84° |
| 2026-05-08 22:35 | 32.23625 | -110.44567 | 19964 ft | 380 kts | 84° |
| 2026-05-08 22:35 | 32.23726 | -110.41443 | 20615 ft | 382 kts | 84° |
| 2026-05-08 22:35 | 32.23829 | -110.38298 | 21213 ft | 385 kts | 84° |
| 2026-05-08 22:35 | 32.23934 | -110.35121 | 21798 ft | 388 kts | 84° |
| 2026-05-08 22:36 | 32.24037 | -110.31922 | 22400 ft | 391 kts | 84° |
| 2026-05-08 22:36 | 32.24137 | -110.28704 | 22964 ft | 394 kts | 84° |
| 2026-05-08 22:36 | 32.24235 | -110.25462 | 23490 ft | 396 kts | 84° |
| 2026-05-08 22:36 | 32.24335 | -110.22196 | 24012 ft | 399 kts | 85° |
| 2026-05-08 22:37 | 32.24435 | -110.18911 | 24542 ft | 402 kts | 84° |
| 2026-05-08 22:37 | 32.24535 | -110.15609 | 25033 ft | 404 kts | 84° |
| 2026-05-08 22:37 | 32.24636 | -110.12281 | 25474 ft | 407 kts | 84° |
| 2026-05-08 22:37 | 32.24738 | -110.08927 | 25900 ft | 410 kts | 84° |
| 2026-05-08 22:38 | 32.24807 | -110.06648 | 26168 ft | 412 kts | 84° |
| 2026-05-08 22:38 | 32.24908 | -110.03253 | 26576 ft | 415 kts | 84° |
| 2026-05-08 22:38 | 32.25008 | -109.99835 | 26980 ft | 418 kts | 84° |
| 2026-05-08 22:38 | 32.25106 | -109.96398 | 27382 ft | 420 kts | 84° |
| 2026-05-08 22:39 | 32.25202 | -109.92935 | 27793 ft | 423 kts | 84° |
| 2026-05-08 22:39 | 32.25299 | -109.89452 | 28187 ft | 426 kts | 84° |
| 2026-05-08 22:39 | 32.25395 | -109.85947 | 28564 ft | 429 kts | 84° |
| 2026-05-08 22:39 | 32.25492 | -109.82419 | 28934 ft | 431 kts | 84° |
| 2026-05-08 22:40 | 32.25591 | -109.78867 | 29297 ft | 433 kts | 84° |
| 2026-05-08 22:40 | 32.25688 | -109.75299 | 29637 ft | 436 kts | 84° |
| 2026-05-08 22:40 | 32.25785 | -109.71710 | 29971 ft | 438 kts | 84° |
| 2026-05-08 22:40 | 32.25883 | -109.68098 | 30287 ft | 441 kts | 84° |
| 2026-05-08 22:41 | 32.25983 | -109.64470 | 30624 ft | 443 kts | 84° |
| 2026-05-08 22:41 | 32.26082 | -109.60820 | 30934 ft | 446 kts | 84° |
| 2026-05-08 22:41 | 32.26179 | -109.57151 | 31233 ft | 448 kts | 84° |
| 2026-05-08 22:41 | 32.26274 | -109.53461 | 31530 ft | 451 kts | 84° |
| 2026-05-08 22:42 | 32.26365 | -109.49759 | 31915 ft | 450 kts | 84° |
| 2026-05-08 22:42 | 32.26453 | -109.46070 | 32337 ft | 449 kts | 84° |
| 2026-05-08 22:42 | 32.26542 | -109.42382 | 32736 ft | 449 kts | 84° |
| 2026-05-08 22:42 | 32.26632 | -109.38701 | 33129 ft | 448 kts | 84° |
| 2026-05-08 22:43 | 32.26717 | -109.35073 | 33517 ft | 447 kts | 84° |
| 2026-05-08 22:43 | 32.26803 | -109.31403 | 33931 ft | 446 kts | 84° |
| 2026-05-08 22:43 | 32.26808 | -109.27740 | 34296 ft | 448 kts | 89° |
| 2026-05-08 22:43 | 32.26391 | -109.24069 | 34634 ft | 454 kts | 98° |
| 2026-05-08 22:44 | 32.25594 | -109.20446 | 34954 ft | 456 kts | 101° |
| 2026-05-08 22:44 | 32.24763 | -109.16830 | 35277 ft | 457 kts | 101° |
| 2026-05-08 22:44 | 32.23930 | -109.13205 | 35574 ft | 457 kts | 101° |
| 2026-05-08 22:44 | 32.23100 | -109.09579 | 35868 ft | 457 kts | 101° |
| 2026-05-08 22:45 | 32.22269 | -109.05953 | 36159 ft | 458 kts | 101° |
| 2026-05-08 22:45 | 32.21438 | -109.02325 | 36429 ft | 458 kts | 101° |
| 2026-05-08 22:45 | 32.20604 | -108.98690 | 36697 ft | 459 kts | 101° |
| 2026-05-08 22:45 | 32.19766 | -108.95047 | 36947 ft | 460 kts | 102° |
| 2026-05-08 22:46 | 32.18926 | -108.91420 | 37006 ft | 457 kts | 102° |
| 2026-05-08 22:46 | 32.17263 | -108.84237 | 37007 ft | 451 kts | 102° |
| 2026-05-08 22:47 | 32.15607 | -108.77105 | 37010 ft | 450 kts | 102° |
| 2026-05-08 22:47 | 32.13956 | -108.69994 | 37007 ft | 449 kts | 102° |
| 2026-05-08 22:48 | 32.12301 | -108.62887 | 37008 ft | 449 kts | 102° |
| 2026-05-08 22:48 | 32.10640 | -108.55783 | 37011 ft | 449 kts | 102° |
| 2026-05-08 22:49 | 32.08978 | -108.48679 | 37017 ft | 449 kts | 102° |
| 2026-05-08 22:49 | 32.06473 | -108.38026 | 37014 ft | 450 kts | 102° |
| 2026-05-08 22:50 | 32.04790 | -108.30927 | 37014 ft | 449 kts | 102° |
| 2026-05-08 22:50 | 32.03109 | -108.23833 | 37013 ft | 450 kts | 102° |
| 2026-05-08 22:51 | 32.01428 | -108.16733 | 37013 ft | 449 kts | 102° |
| 2026-05-08 22:51 | 31.99742 | -108.09648 | 37015 ft | 449 kts | 102° |
| 2026-05-08 22:52 | 31.98056 | -108.02569 | 37009 ft | 449 kts | 102° |
| 2026-05-08 22:52 | 31.96362 | -107.95492 | 36999 ft | 449 kts | 103° |
| 2026-05-08 22:53 | 31.94666 | -107.88426 | 36999 ft | 448 kts | 103° |
| 2026-05-08 22:53 | 31.92969 | -107.81358 | 36997 ft | 449 kts | 102° |
| 2026-05-08 22:54 | 31.92222 | -107.74148 | 36997 ft | 442 kts | 85° |
| 2026-05-08 22:54 | 31.92437 | -107.66917 | 36987 ft | 443 kts | 85° |
| 2026-05-08 22:55 | 31.92607 | -107.59669 | 36986 ft | 443 kts | 85° |
| 2026-05-08 22:55 | 31.92768 | -107.52410 | 36980 ft | 444 kts | 86° |
| 2026-05-08 22:56 | 31.92941 | -107.45134 | 36977 ft | 445 kts | 86° |
| 2026-05-08 22:56 | 31.93119 | -107.37838 | 36976 ft | 447 kts | 86° |
| 2026-05-08 22:57 | 31.93290 | -107.30514 | 36975 ft | 448 kts | 87° |
| 2026-05-08 22:57 | 31.93452 | -107.23163 | 36975 ft | 450 kts | 87° |
| 2026-05-08 22:58 | 31.93610 | -107.15780 | 36971 ft | 451 kts | 87° |
| 2026-05-08 22:58 | 31.93773 | -107.08382 | 36970 ft | 453 kts | 88° |
| 2026-05-08 22:59 | 31.93921 | -107.00963 | 36970 ft | 454 kts | 88° |
| 2026-05-08 22:59 | 31.94054 | -106.93533 | 36968 ft | 455 kts | 88° |
| 2026-05-08 23:00 | 31.94196 | -106.86079 | 36968 ft | 456 kts | 89° |
| 2026-05-08 23:00 | 31.94338 | -106.78614 | 36964 ft | 457 kts | 89° |
| 2026-05-08 23:01 | 31.94471 | -106.71128 | 36962 ft | 458 kts | 89° |
| 2026-05-08 23:01 | 31.94609 | -106.63632 | 36968 ft | 458 kts | 89° |
| 2026-05-08 23:02 | 31.94736 | -106.56127 | 36980 ft | 459 kts | 90° |
| 2026-05-08 23:02 | 31.94857 | -106.48619 | 36980 ft | 459 kts | 90° |
| 2026-05-08 23:03 | 31.94972 | -106.41113 | 36981 ft | 458 kts | 90° |
| 2026-05-08 23:03 | 31.95084 | -106.33615 | 36978 ft | 458 kts | 90° |
| 2026-05-08 23:04 | 31.95188 | -106.26129 | 36973 ft | 457 kts | 91° |
| 2026-05-08 23:04 | 31.95131 | -106.18662 | 36974 ft | 456 kts | 92° |
| 2026-05-08 23:05 | 31.94961 | -106.11198 | 36975 ft | 456 kts | 93° |
| 2026-05-08 23:05 | 31.94797 | -106.03738 | 36977 ft | 456 kts | 92° |
| 2026-05-08 23:06 | 31.94665 | -105.96286 | 36976 ft | 455 kts | 92° |
| 2026-05-08 23:06 | 31.94545 | -105.88839 | 36975 ft | 455 kts | 92° |
| 2026-05-08 23:07 | 31.94415 | -105.81393 | 36963 ft | 455 kts | 92° |
| 2026-05-08 23:07 | 31.94277 | -105.73948 | 36952 ft | 455 kts | 92° |
| 2026-05-08 23:08 | 31.94132 | -105.66498 | 36936 ft | 456 kts | 93° |
| 2026-05-08 23:08 | 31.93979 | -105.59032 | 36923 ft | 456 kts | 93° |
| 2026-05-08 23:09 | 31.93826 | -105.51549 | 36917 ft | 458 kts | 93° |
| 2026-05-08 23:09 | 31.93668 | -105.44040 | 36914 ft | 459 kts | 94° |
| 2026-05-08 23:10 | 31.93498 | -105.36519 | 36911 ft | 461 kts | 94° |
| 2026-05-08 23:10 | 31.93335 | -105.28962 | 36910 ft | 462 kts | 94° |
| 2026-05-08 23:11 | 31.93177 | -105.21388 | 36909 ft | 464 kts | 94° |
| 2026-05-08 23:11 | 31.93015 | -105.13779 | 36908 ft | 466 kts | 95° |
| 2026-05-08 23:12 | 31.92851 | -105.06131 | 36896 ft | 468 kts | 95° |
| 2026-05-08 23:12 | 31.92681 | -104.98459 | 36904 ft | 470 kts | 95° |
| 2026-05-08 23:13 | 31.92499 | -104.90747 | 36907 ft | 472 kts | 95° |
| 2026-05-08 23:13 | 31.92311 | -104.83013 | 36907 ft | 473 kts | 96° |
| 2026-05-08 23:14 | 31.92116 | -104.75257 | 36906 ft | 475 kts | 96° |
| 2026-05-08 23:14 | 31.91917 | -104.67474 | 36908 ft | 476 kts | 96° |
| 2026-05-08 23:15 | 31.91717 | -104.59673 | 36911 ft | 478 kts | 96° |
| 2026-05-08 23:15 | 31.91516 | -104.51847 | 36911 ft | 478 kts | 96° |
| 2026-05-08 23:16 | 31.91304 | -104.44019 | 36905 ft | 479 kts | 97° |
| 2026-05-08 23:16 | 31.91091 | -104.36182 | 36909 ft | 480 kts | 96° |
| 2026-05-08 23:17 | 31.90872 | -104.28332 | 36911 ft | 480 kts | 97° |
| 2026-05-08 23:17 | 31.90643 | -104.20479 | 36917 ft | 480 kts | 97° |
| 2026-05-08 23:18 | 31.90412 | -104.12634 | 36917 ft | 480 kts | 97° |
| 2026-05-08 23:18 | 31.90215 | -104.06107 | 36909 ft | 480 kts | 97° |
| 2026-05-08 23:19 | 31.89970 | -103.98254 | 36918 ft | 480 kts | 97° |
| 2026-05-08 23:19 | 31.89729 | -103.90401 | 36921 ft | 480 kts | 97° |
| 2026-05-08 23:20 | 31.89482 | -103.82551 | 36925 ft | 480 kts | 97° |
| 2026-05-08 23:20 | 31.89225 | -103.74702 | 36921 ft | 481 kts | 97° |
| 2026-05-08 23:21 | 31.88962 | -103.66838 | 36908 ft | 481 kts | 97° |
| 2026-05-08 23:21 | 31.88702 | -103.58971 | 36906 ft | 481 kts | 97° |
| 2026-05-08 23:22 | 31.88433 | -103.51093 | 36899 ft | 482 kts | 97° |
| 2026-05-08 23:22 | 31.88153 | -103.43205 | 36896 ft | 483 kts | 97° |
| 2026-05-08 23:23 | 31.87863 | -103.35298 | 36887 ft | 484 kts | 97° |
| 2026-05-08 23:23 | 31.87579 | -103.27381 | 36881 ft | 485 kts | 97° |
| 2026-05-08 23:24 | 31.88141 | -103.19402 | 36879 ft | 494 kts | 84° |
| 2026-05-08 23:24 | 31.89228 | -103.11408 | 36879 ft | 496 kts | 85° |
| 2026-05-08 23:25 | 31.90287 | -103.03386 | 36879 ft | 497 kts | 85° |
| 2026-05-08 23:25 | 31.91346 | -102.95335 | 36875 ft | 499 kts | 85° |
| 2026-05-08 23:26 | 31.92405 | -102.87254 | 36869 ft | 500 kts | 85° |
| 2026-05-08 23:26 | 31.93459 | -102.79154 | 36874 ft | 501 kts | 85° |
| 2026-05-08 23:27 | 31.94515 | -102.71033 | 36877 ft | 502 kts | 85° |
| 2026-05-08 23:27 | 31.95574 | -102.62903 | 36881 ft | 503 kts | 85° |
| 2026-05-08 23:28 | 31.96628 | -102.54755 | 36884 ft | 504 kts | 85° |
| 2026-05-08 23:28 | 31.97679 | -102.46594 | 36889 ft | 504 kts | 85° |
| 2026-05-08 23:29 | 31.98717 | -102.38432 | 36893 ft | 504 kts | 85° |
| 2026-05-08 23:29 | 31.99748 | -102.30262 | 36887 ft | 504 kts | 85° |
| 2026-05-08 23:30 | 32.00781 | -102.22094 | 36898 ft | 504 kts | 85° |
| 2026-05-08 23:30 | 32.01804 | -102.13931 | 36891 ft | 504 kts | 85° |
| 2026-05-08 23:31 | 32.02822 | -102.05762 | 36898 ft | 504 kts | 85° |
| 2026-05-08 23:31 | 32.03831 | -101.97588 | 36903 ft | 504 kts | 85° |
| 2026-05-08 23:32 | 32.04838 | -101.89416 | 36903 ft | 504 kts | 85° |
| 2026-05-08 23:32 | 32.05851 | -101.81237 | 36897 ft | 504 kts | 85° |
| 2026-05-08 23:33 | 32.06854 | -101.73055 | 36905 ft | 504 kts | 85° |
| 2026-05-08 23:33 | 32.07846 | -101.64875 | 36898 ft | 504 kts | 85° |
| 2026-05-08 23:34 | 32.08833 | -101.56685 | 36893 ft | 505 kts | 85° |
| 2026-05-08 23:34 | 32.09817 | -101.48486 | 36888 ft | 505 kts | 85° |
| 2026-05-08 23:35 | 32.10798 | -101.40289 | 36884 ft | 505 kts | 85° |
| 2026-05-08 23:35 | 32.11777 | -101.32082 | 36880 ft | 505 kts | 85° |
| 2026-05-08 23:36 | 32.12741 | -101.23867 | 36879 ft | 506 kts | 85° |
| 2026-05-08 23:36 | 32.13706 | -101.15632 | 36879 ft | 507 kts | 85° |
| 2026-05-08 23:37 | 32.14673 | -101.07393 | 36874 ft | 507 kts | 85° |
| 2026-05-08 23:37 | 32.15639 | -100.99138 | 36872 ft | 508 kts | 85° |
| 2026-05-08 23:38 | 32.16589 | -100.90868 | 36868 ft | 509 kts | 85° |
| 2026-05-08 23:38 | 32.17535 | -100.82584 | 36866 ft | 510 kts | 85° |
| 2026-05-08 23:39 | 32.18486 | -100.74280 | 36865 ft | 511 kts | 85° |
| 2026-05-08 23:39 | 32.19426 | -100.65956 | 36868 ft | 512 kts | 85° |
| 2026-05-08 23:40 | 32.20367 | -100.57609 | 36870 ft | 513 kts | 85° |
| 2026-05-08 23:40 | 32.21302 | -100.49243 | 36867 ft | 515 kts | 85° |
| 2026-05-08 23:41 | 32.22245 | -100.40851 | 36869 ft | 516 kts | 85° |
| 2026-05-08 23:41 | 32.23178 | -100.32442 | 36870 ft | 517 kts | 85° |
| 2026-05-08 23:42 | 32.24098 | -100.24005 | 36867 ft | 518 kts | 86° |
| 2026-05-08 23:42 | 32.25018 | -100.15563 | 36865 ft | 519 kts | 86° |
| 2026-05-08 23:43 | 32.25942 | -100.07106 | 36865 ft | 519 kts | 86° |
| 2026-05-08 23:43 | 32.26858 | -99.98644 | 36860 ft | 519 kts | 86° |
| 2026-05-08 23:44 | 32.27760 | -99.90178 | 36849 ft | 520 kts | 86° |
| 2026-05-08 23:44 | 32.28481 | -99.81689 | 36845 ft | 518 kts | 90° |
| 2026-05-08 23:45 | 32.28872 | -99.73258 | 36843 ft | 517 kts | 91° |
| 2026-05-08 23:45 | 32.29208 | -99.64770 | 36842 ft | 517 kts | 91° |
| 2026-05-08 23:46 | 32.29621 | -99.56274 | 36849 ft | 518 kts | 90° |
| 2026-05-08 23:46 | 32.30079 | -99.47775 | 36855 ft | 518 kts | 90° |
| 2026-05-08 23:47 | 32.30529 | -99.39275 | 36862 ft | 519 kts | 90° |
| 2026-05-08 23:47 | 32.30960 | -99.30763 | 36866 ft | 518 kts | 90° |
| 2026-05-08 23:48 | 32.31377 | -99.22254 | 36866 ft | 519 kts | 91° |
| 2026-05-08 23:48 | 32.31787 | -99.13742 | 36865 ft | 519 kts | 90° |
| 2026-05-08 23:49 | 32.32202 | -99.05215 | 36862 ft | 520 kts | 90° |
| 2026-05-08 23:49 | 32.32609 | -98.96681 | 36866 ft | 521 kts | 90° |
| 2026-05-08 23:50 | 32.33014 | -98.88053 | 36227 ft | 535 kts | 91° |
| 2026-05-08 23:50 | 32.33215 | -98.83606 | 35130 ft | 546 kts | 90° |
| 2026-05-08 23:50 | 32.33418 | -98.79152 | 34671 ft | 539 kts | 90° |
| 2026-05-08 23:51 | 32.33624 | -98.74731 | 34071 ft | 537 kts | 90° |
| 2026-05-08 23:51 | 32.33830 | -98.70325 | 33211 ft | 538 kts | 90° |
| 2026-05-08 23:51 | 32.34030 | -98.65906 | 32202 ft | 539 kts | 90° |
| 2026-05-08 23:51 | 32.34226 | -98.61502 | 31303 ft | 534 kts | 90° |
| 2026-05-08 23:52 | 32.34422 | -98.57160 | 30680 ft | 521 kts | 89° |
| 2026-05-08 23:52 | 32.34614 | -98.52927 | 30131 ft | 513 kts | 90° |
| 2026-05-08 23:52 | 32.34801 | -98.48725 | 29561 ft | 509 kts | 90° |
| 2026-05-08 23:52 | 32.34982 | -98.44564 | 29006 ft | 505 kts | 90° |
| 2026-05-08 23:53 | 32.35157 | -98.40434 | 28448 ft | 501 kts | 89° |
| 2026-05-08 23:53 | 32.35333 | -98.36324 | 27902 ft | 497 kts | 89° |
| 2026-05-08 23:53 | 32.35504 | -98.32259 | 27371 ft | 493 kts | 89° |
| 2026-05-08 23:53 | 32.35675 | -98.28221 | 26844 ft | 489 kts | 89° |
| 2026-05-08 23:54 | 32.35841 | -98.24228 | 26342 ft | 484 kts | 89° |
| 2026-05-08 23:54 | 32.36002 | -98.20268 | 25850 ft | 479 kts | 89° |
| 2026-05-08 23:54 | 32.36159 | -98.16349 | 25343 ft | 475 kts | 89° |
| 2026-05-08 23:55 | 32.36467 | -98.08622 | 24382 ft | 467 kts | 88° |
| 2026-05-08 23:55 | 32.36621 | -98.04808 | 23931 ft | 462 kts | 88° |
| 2026-05-08 23:55 | 32.36774 | -98.01018 | 23402 ft | 460 kts | 88° |
| 2026-05-08 23:55 | 32.36922 | -97.97248 | 22895 ft | 458 kts | 88° |
| 2026-05-08 23:56 | 32.37064 | -97.93495 | 22400 ft | 456 kts | 88° |
| 2026-05-08 23:56 | 32.37208 | -97.89751 | 21887 ft | 455 kts | 88° |
| 2026-05-08 23:56 | 32.37354 | -97.86042 | 21641 ft | 446 kts | 88° |
| 2026-05-08 23:56 | 32.37497 | -97.82434 | 21268 ft | 433 kts | 88° |
| 2026-05-08 23:57 | 32.37635 | -97.78911 | 20665 ft | 425 kts | 88° |
| 2026-05-08 23:57 | 32.37769 | -97.75439 | 20008 ft | 419 kts | 88° |
| 2026-05-08 23:57 | 32.37902 | -97.72031 | 19435 ft | 411 kts | 88° |
| 2026-05-08 23:57 | 32.38040 | -97.68688 | 18887 ft | 403 kts | 86° |
| 2026-05-08 23:58 | 32.38501 | -97.65469 | 18425 ft | 393 kts | 73° |
| 2026-05-08 23:58 | 32.39449 | -97.62493 | 17968 ft | 382 kts | 61° |
| 2026-05-08 23:58 | 32.40819 | -97.59863 | 17611 ft | 371 kts | 49° |
| 2026-05-08 23:58 | 32.42532 | -97.57613 | 17201 ft | 367 kts | 39° |
| 2026-05-08 23:59 | 32.44383 | -97.55517 | 16813 ft | 370 kts | 40° |
| 2026-05-08 23:59 | 32.46262 | -97.53383 | 16589 ft | 377 kts | 40° |
| 2026-05-08 23:59 | 32.48153 | -97.51234 | 16306 ft | 377 kts | 40° |
| 2026-05-08 23:59 | 32.50038 | -97.49084 | 16035 ft | 376 kts | 40° |
| 2026-05-09 00:00 | 32.51303 | -97.47634 | 15857 ft | 375 kts | 40° |
| 2026-05-09 00:00 | 32.53149 | -97.45514 | 15606 ft | 374 kts | 40° |
| 2026-05-09 00:00 | 32.55014 | -97.43378 | 15336 ft | 372 kts | 40° |
| 2026-05-09 00:00 | 32.56870 | -97.41251 | 15067 ft | 370 kts | 40° |
| 2026-05-09 00:01 | 32.58724 | -97.39128 | 14492 ft | 375 kts | 40° |
| 2026-05-09 00:01 | 32.60615 | -97.36968 | 14054 ft | 375 kts | 40° |
| 2026-05-09 00:01 | 32.62450 | -97.34864 | 13856 ft | 358 kts | 40° |
| 2026-05-09 00:01 | 32.64193 | -97.32858 | 13716 ft | 341 kts | 40° |
| 2026-05-09 00:02 | 32.65869 | -97.30929 | 13385 ft | 332 kts | 40° |
| 2026-05-09 00:02 | 32.67518 | -97.29034 | 12965 ft | 328 kts | 40° |
| 2026-05-09 00:02 | 32.69143 | -97.27166 | 12735 ft | 322 kts | 40° |
| 2026-05-09 00:02 | 32.70752 | -97.25318 | 12655 ft | 322 kts | 40° |
| 2026-05-09 00:03 | 32.72360 | -97.23469 | 12536 ft | 321 kts | 40° |
| 2026-05-09 00:03 | 32.73958 | -97.21631 | 12377 ft | 320 kts | 40° |
| 2026-05-09 00:03 | 32.75549 | -97.19798 | 12237 ft | 316 kts | 40° |
| 2026-05-09 00:03 | 32.77174 | -97.18102 | 12100 ft | 307 kts | 28° |
| 2026-05-09 00:04 | 32.79052 | -97.17045 | 11948 ft | 293 kts | 11° |
| 2026-05-09 00:04 | 32.81034 | -97.16702 | 11647 ft | 284 kts | 354° |
| 2026-05-09 00:04 | 32.83006 | -97.16704 | 11345 ft | 281 kts | 354° |
| 2026-05-09 00:04 | 32.84914 | -97.16686 | 11112 ft | 269 kts | 354° |
| 2026-05-09 00:05 | 32.86754 | -97.16661 | 10796 ft | 263 kts | 354° |
| 2026-05-09 00:05 | 32.88587 | -97.16641 | 10304 ft | 263 kts | 354° |
| 2026-05-09 00:05 | 32.90419 | -97.16624 | 9849 ft | 263 kts | 355° |
| 2026-05-09 00:05 | 32.92264 | -97.16607 | 9351 ft | 266 kts | 356° |
| 2026-05-09 00:06 | 32.94117 | -97.16588 | 8837 ft | 267 kts | 356° |
| 2026-05-09 00:06 | 32.95976 | -97.16565 | 8366 ft | 267 kts | 357° |
| 2026-05-09 00:06 | 32.97827 | -97.16538 | 7894 ft | 265 kts | 357° |
| 2026-05-09 00:06 | 32.99669 | -97.16512 | 7398 ft | 265 kts | 357° |
| 2026-05-09 00:07 | 33.01503 | -97.16490 | 6901 ft | 263 kts | 357° |
| 2026-05-09 00:07 | 33.03324 | -97.16469 | 6471 ft | 260 kts | 358° |
| 2026-05-09 00:07 | 33.05122 | -97.16446 | 6063 ft | 257 kts | 358° |
| 2026-05-09 00:07 | 33.06900 | -97.16424 | 5639 ft | 254 kts | 358° |
| 2026-05-09 00:08 | 33.08669 | -97.16403 | 5215 ft | 255 kts | 358° |
| 2026-05-09 00:08 | 33.10417 | -97.16392 | 4818 ft | 249 kts | 358° |
| 2026-05-09 00:08 | 33.12139 | -97.16377 | 4416 ft | 245 kts | 359° |
| 2026-05-09 00:08 | 33.13829 | -97.16274 | 4062 ft | 242 kts | 12° |
| 2026-05-09 00:09 | 33.15283 | -97.15357 | 3787 ft | 239 kts | 46° |
| 2026-05-09 00:09 | 33.16098 | -97.13683 | 3544 ft | 232 kts | 78° |
| 2026-05-09 00:09 | 33.16283 | -97.11782 | 3428 ft | 230 kts | 89° |
| 2026-05-09 00:09 | 33.16178 | -97.09907 | 3285 ft | 225 kts | 111° |
| 2026-05-09 00:10 | 33.15323 | -97.08399 | 3167 ft | 217 kts | 140° |
| 2026-05-09 00:10 | 33.14174 | -97.07297 | 3066 ft | 207 kts | 145° |
| 2026-05-09 00:10 | 33.12980 | -97.06417 | 3001 ft | 198 kts | 157° |
| 2026-05-09 00:10 | 33.11712 | -97.05793 | 3005 ft | 196 kts | 160° |
| 2026-05-09 00:11 | 33.10401 | -97.05394 | 3005 ft | 194 kts | 178° |
| 2026-05-09 00:11 | 33.09052 | -97.05375 | 3013 ft | 194 kts | 180° |
| 2026-05-09 00:11 | 33.07748 | -97.05382 | 2996 ft | 180 kts | 180° |
| 2026-05-09 00:11 | 33.06542 | -97.05388 | 2995 ft | 168 kts | 181° |
| 2026-05-09 00:12 | 33.05389 | -97.05393 | 3001 ft | 164 kts | 181° |
| 2026-05-09 00:12 | 33.04253 | -97.05400 | 2990 ft | 163 kts | 181° |
| 2026-05-09 00:12 | 33.03122 | -97.05406 | 2855 ft | 162 kts | 181° |
| 2026-05-09 00:12 | 33.01996 | -97.05412 | 2670 ft | 162 kts | 180° |
| 2026-05-09 00:13 | 33.00870 | -97.05417 | 2457 ft | 162 kts | 180° |
| 2026-05-09 00:13 | 32.99745 | -97.05423 | 2243 ft | 160 kts | 180° |
| 2026-05-09 00:13 | 32.98661 | -97.05429 | 2034 ft | 152 kts | 179° |
| 2026-05-09 00:13 | 32.97625 | -97.05434 | 1830 ft | 147 kts | 179° |
| 2026-05-09 00:14 | 32.96622 | -97.05439 | 1638 ft | 142 kts | 179° |
| 2026-05-09 00:14 | 32.95648 | -97.05443 | 1447 ft | 139 kts | 179° |
| 2026-05-09 00:14 | 32.94690 | -97.05447 | 1261 ft | 138 kts | 180° |
| 2026-05-09 00:14 | 32.93731 | -97.05458 | 1091 ft | 138 kts | 179° |
| 2026-05-09 00:15 | 32.92777 | -97.05460 | 905 ft | 137 kts | 179° |
| 2026-05-09 00:15 | 32.91822 | -97.05463 | 715 ft | 137 kts | 180° |
| 2026-05-09 00:15 | 32.91192 | -97.05467 | 622 ft | 133 kts | 180° |